createdAt,value
2023-05-10T00:00:03.864Z,2.60
2023-05-10T00:03:39.583Z,2.42
2023-05-10T00:07:22.685Z,2.50
2023-05-10T00:11:29.295Z,2.53
2023-05-10T00:15:00.263Z,2.30
2023-05-10T00:23:08.742Z,3.67
2023-05-10T00:31:31.507Z,2.60
2023-05-10T01:19:45.477Z,2.83
2023-05-10T01:24:09.343Z,2.72
2023-05-10T01:28:14.022Z,2.50
2023-05-10T01:31:58.670Z,2.70
2023-05-10T01:35:21.188Z,2.87
2023-05-10T01:39:22.288Z,3.00
2023-05-10T01:42:41.625Z,3.30
2023-05-10T01:46:48.459Z,2.90
2023-05-10T01:50:13.613Z,3.00
2023-05-10T01:53:42.988Z,3.30
2023-05-10T01:57:27.476Z,2.80
2023-05-10T02:01:14.602Z,2.80
2023-05-10T02:04:46.965Z,3.40
2023-05-10T02:08:12.431Z,3.30
2023-05-10T02:11:38.327Z,3.17
2023-05-10T02:14:59.841Z,2.83
2023-05-10T02:22:22.953Z,3.63
2023-05-10T02:26:52.496Z,3.55
2023-05-10T02:39:33.466Z,3.78
2023-05-10T02:51:56.914Z,3.03
2023-05-10T02:55:22.594Z,3.60
2023-05-10T02:58:41.127Z,3.22
2023-05-10T03:02:01.648Z,3.65
2023-05-10T03:05:14.871Z,3.28
2023-05-10T03:08:23.982Z,3.70
2023-05-10T03:12:07.396Z,3.97
2023-05-10T03:15:45.124Z,4.05
2023-05-10T03:19:30.866Z,3.70
2023-05-10T03:22:47.808Z,3.85
2023-05-10T03:26:01.453Z,4.13
2023-05-10T03:29:22.071Z,4.00
2023-05-10T03:32:30.217Z,4.28
2023-05-10T03:35:39.255Z,3.83
2023-05-10T03:38:55.148Z,3.88
2023-05-10T03:42:05.969Z,4.07
2023-05-10T03:45:28.342Z,4.07
2023-05-10T03:48:54.351Z,4.22
2023-05-10T03:52:17.976Z,3.45
2023-05-10T03:55:54.820Z,4.00
2023-05-10T03:59:23.893Z,3.83
2023-05-10T04:02:47.962Z,3.63
2023-05-10T04:06:21.136Z,3.85
2023-05-10T04:09:54.567Z,3.92
2023-05-10T04:13:14.995Z,4.43
2023-05-10T04:16:28.630Z,4.30
2023-05-10T04:19:47.872Z,4.00
2023-05-10T04:23:01.942Z,3.95
2023-05-10T04:26:09.963Z,4.75
2023-05-10T04:29:27.069Z,4.40
2023-05-10T04:32:37.281Z,4.93
2023-05-10T04:35:56.745Z,4.40
2023-05-10T04:39:10.492Z,4.93
2023-05-10T04:42:40.689Z,4.60
2023-05-10T04:46:03.783Z,5.00
2023-05-10T04:49:20.118Z,4.53
2023-05-10T04:52:37.122Z,5.00
2023-05-10T04:55:45.486Z,4.90
2023-05-10T04:59:07.675Z,4.82
2023-05-10T05:02:20.965Z,4.38
2023-05-10T05:05:25.719Z,4.60
2023-05-10T05:08:32.185Z,4.47
2023-05-10T05:11:45.256Z,4.35
2023-05-10T05:15:03.573Z,4.70
2023-05-10T05:18:19.221Z,4.57
2023-05-10T05:21:30.897Z,4.43
2023-05-10T05:24:47.483Z,4.93
2023-05-10T05:27:56.860Z,4.50
2023-05-10T05:31:06.921Z,4.70
2023-05-10T05:34:10.994Z,4.72
2023-05-10T05:37:31.005Z,4.67
2023-05-10T05:40:40.937Z,4.07
2023-05-10T05:43:44.352Z,4.75
2023-05-10T05:46:56.648Z,4.60
2023-05-10T05:50:07.708Z,4.97
2023-05-10T05:53:22.446Z,5.00
2023-05-10T05:57:55.877Z,4.57
2023-05-10T06:01:15.535Z,4.50
2023-05-10T06:28:25.759Z,4.10
2023-05-10T06:57:47.293Z,5.03
2023-05-10T07:38:31.615Z,3.95
2023-05-10T07:41:35.906Z,3.58
2023-05-10T07:44:38.812Z,4.43
2023-05-10T07:47:44.234Z,3.93
2023-05-10T07:50:46.747Z,4.22
2023-05-10T07:53:50.186Z,3.63
2023-05-10T07:56:59.225Z,3.50
2023-05-10T08:00:04.733Z,3.65
2023-05-10T08:03:14.439Z,4.20
2023-05-10T08:06:17.150Z,3.83
2023-05-10T08:09:25.025Z,4.22
2023-05-10T08:12:40.386Z,3.88
2023-05-10T08:15:42.802Z,3.10
2023-05-10T08:18:46.695Z,3.23
2023-05-10T08:21:49.518Z,2.83
2023-05-10T08:25:00.387Z,4.07
2023-05-10T08:28:09.913Z,3.65
2023-05-10T08:31:19.187Z,3.20
2023-05-10T08:34:23.041Z,3.97
2023-05-10T08:37:26.379Z,3.83
2023-05-10T08:40:29.451Z,4.13
2023-05-10T08:43:39.642Z,4.28
2023-05-10T08:46:52.035Z,3.17
2023-05-10T08:49:58.520Z,3.60
2023-05-10T08:53:05.226Z,3.72
2023-05-10T08:56:08.481Z,4.47
2023-05-10T08:59:14.428Z,3.30
2023-05-10T09:02:28.680Z,3.35
2023-05-10T09:05:34.843Z,3.40
2023-05-10T09:08:41.657Z,3.45
2023-05-10T09:11:50.051Z,2.95
2023-05-10T09:14:53.784Z,3.40
2023-05-10T09:17:56.603Z,3.00
2023-05-10T09:20:58.643Z,3.93
2023-05-10T09:24:07.995Z,3.50
2023-05-10T09:27:10.938Z,3.53
2023-05-10T09:30:34.467Z,3.22
2023-05-10T09:33:52.161Z,3.70
2023-05-10T09:37:02.090Z,3.57
2023-05-10T09:40:08.688Z,3.08
2023-05-10T09:43:47.348Z,3.30
2023-05-10T09:47:13.149Z,3.22
2023-05-10T09:50:15.831Z,3.10
2023-05-10T09:53:34.809Z,3.13
2023-05-10T10:34:39.855Z,3.08
2023-05-10T10:50:20.475Z,2.35
2023-05-10T10:52:12.481Z,2.30
2023-05-10T10:55:52.504Z,3.08
2023-05-10T10:59:10.270Z,2.42
2023-05-10T11:02:46.942Z,1.98
2023-05-10T11:05:51.000Z,2.67
2023-05-10T11:09:13.532Z,2.43
2023-05-10T11:12:27.408Z,2.00
2023-05-10T11:15:51.322Z,2.30
2023-05-10T11:19:05.129Z,2.10
2023-05-10T11:22:25.128Z,1.98
2023-05-10T11:25:31.211Z,1.70
2023-05-10T11:28:49.767Z,2.10
2023-05-10T11:32:15.561Z,1.92
2023-05-10T11:35:28.396Z,1.67
2023-05-10T11:38:59.766Z,1.77
2023-05-10T11:42:14.417Z,1.37
2023-05-10T11:45:17.888Z,1.50
2023-05-10T11:48:25.131Z,1.58
2023-05-10T11:51:29.212Z,1.90
2023-05-10T11:54:36.142Z,1.90
2023-05-10T11:57:39.796Z,1.93
2023-05-10T12:00:48.202Z,1.83
2023-05-10T12:03:54.189Z,1.70
2023-05-10T12:06:57.343Z,1.52
2023-05-10T12:10:11.776Z,1.60
2023-05-10T12:13:27.430Z,1.40
2023-05-10T12:21:13.223Z,1.98
2023-05-10T12:24:19.224Z,1.70
2023-05-10T12:27:22.893Z,2.25
2023-05-10T12:30:30.459Z,1.60
2023-05-10T12:33:44.677Z,1.40
2023-05-10T12:36:46.801Z,1.77
2023-05-10T12:39:52.660Z,1.67
2023-05-10T12:42:56.120Z,1.50
2023-05-10T12:45:58.323Z,1.77
2023-05-10T12:49:08.507Z,1.70
2023-05-10T12:52:11.487Z,1.75
2023-05-10T12:55:17.025Z,1.10
2023-05-10T12:58:34.306Z,1.60
2023-05-10T13:01:38.109Z,1.20
2023-05-10T13:04:56.851Z,1.60
2023-05-10T13:07:59.420Z,1.60
2023-05-10T13:11:05.384Z,1.50
2023-05-10T13:14:08.190Z,1.63
2023-05-10T13:17:13.551Z,1.37
2023-05-10T13:20:21.409Z,1.10
2023-05-10T13:23:24.391Z,1.25
2023-05-10T13:26:33.724Z,1.35
2023-05-10T13:29:35.896Z,1.20
2023-05-10T13:32:38.230Z,1.80
2023-05-10T13:35:40.332Z,1.23
2023-05-10T13:38:42.424Z,1.10
2023-05-10T13:41:50.516Z,1.20
2023-05-10T13:44:52.901Z,1.60
2023-05-10T13:47:54.910Z,1.30
2023-05-10T13:50:57.137Z,1.17
2023-05-10T13:53:59.512Z,1.40
2023-05-10T13:57:01.797Z,1.52
2023-05-10T14:00:04.396Z,1.33
2023-05-10T14:03:08.819Z,0.90
2023-05-10T14:06:10.970Z,1.00
2023-05-10T14:09:13.019Z,1.38
2023-05-10T14:12:15.727Z,1.00
2023-05-10T14:15:17.908Z,1.20
2023-05-10T14:18:20.189Z,1.03
2023-05-10T14:21:22.221Z,1.10
2023-05-10T14:24:25.638Z,1.05
2023-05-10T14:27:28.032Z,0.80
2023-05-10T14:30:31.944Z,1.20
2023-05-10T14:33:38.214Z,0.90
2023-05-10T14:40:25.833Z,1.00
2023-05-10T14:44:51.914Z,1.13
2023-05-10T14:48:30.790Z,1.10
2023-05-10T14:55:45.303Z,1.15
2023-05-10T15:07:40.002Z,1.25
2023-05-10T15:10:54.331Z,0.90
2023-05-10T15:14:02.633Z,1.42
2023-05-10T15:20:53.417Z,0.90
2023-05-10T15:27:26.932Z,1.00
2023-05-10T15:34:28.660Z,0.90
2023-05-10T15:37:50.600Z,0.80
2023-05-10T15:41:12.601Z,0.98
2023-05-10T15:44:35.736Z,1.20
2023-05-10T15:47:46.077Z,1.17
2023-05-10T15:51:01.077Z,1.02
2023-05-10T15:54:28.965Z,1.00
2023-05-10T15:57:36.792Z,1.08
2023-05-10T16:00:51.282Z,1.20
2023-05-10T16:03:58.931Z,1.20
2023-05-10T16:07:27.311Z,1.20
2023-05-10T16:10:42.556Z,0.90
2023-05-10T16:14:10.168Z,1.42
2023-05-10T16:17:28.908Z,1.13
2023-05-10T16:21:05.415Z,1.30
2023-05-10T16:24:37.768Z,1.30
2023-05-10T16:31:38.309Z,1.23
2023-05-10T16:35:37.014Z,0.80
2023-05-10T16:39:27.452Z,1.50
2023-05-10T16:43:02.366Z,1.20
2023-05-10T16:55:10.363Z,1.77
2023-05-10T17:02:11.549Z,1.70
2023-05-10T17:05:50.701Z,1.65
2023-05-10T17:09:07.862Z,1.65
2023-05-10T17:12:25.969Z,1.57
2023-05-10T17:16:08.595Z,1.70
2023-05-10T17:19:37.516Z,1.50
2023-05-10T17:23:08.947Z,1.67
2023-05-10T17:26:38.722Z,2.00
2023-05-10T17:30:38.281Z,1.93
2023-05-10T17:46:20.340Z,1.77
2023-05-10T17:49:47.885Z,1.93
2023-05-10T17:53:28.926Z,1.98
2023-05-10T17:56:49.295Z,1.75
2023-05-10T18:00:07.416Z,1.98
2023-05-10T18:03:56.952Z,2.00
2023-05-10T18:07:04.433Z,1.90
2023-05-10T18:10:13.076Z,1.90
2023-05-10T18:13:18.044Z,1.90
2023-05-10T18:16:24.404Z,1.90
2023-05-10T18:19:46.183Z,1.95
2023-05-10T18:22:58.367Z,1.87
2023-05-10T18:26:03.187Z,1.77
2023-05-10T18:29:13.836Z,1.63
2023-05-10T18:32:27.749Z,2.13
2023-05-10T18:35:45.569Z,1.70
2023-05-10T18:38:52.433Z,1.77
2023-05-10T18:42:02.452Z,2.13
2023-05-10T18:45:15.530Z,1.67
2023-05-10T18:48:22.331Z,1.85
2023-05-10T18:51:33.899Z,1.70
2023-05-10T18:54:46.700Z,1.67
2023-05-10T18:57:58.670Z,2.50
2023-05-10T19:01:10.311Z,1.58
2023-05-10T19:04:22.472Z,1.73
2023-05-10T19:07:40.668Z,1.80
2023-05-10T19:10:51.561Z,1.70
2023-05-10T19:14:00.478Z,1.45
2023-05-10T19:17:41.112Z,1.80
2023-05-10T19:20:56.206Z,1.60
2023-05-10T19:24:06.916Z,2.55
2023-05-10T19:27:20.034Z,1.80
2023-05-10T19:30:36.107Z,2.17
2023-05-10T19:33:47.162Z,1.65
2023-05-10T19:37:03.036Z,1.85
2023-05-10T19:40:13.688Z,2.40
2023-05-10T19:43:22.106Z,1.93
2023-05-10T19:46:35.082Z,2.00
2023-05-10T19:49:39.906Z,2.65
2023-05-10T19:53:03.053Z,1.67
2023-05-10T19:56:21.449Z,1.88
2023-05-10T19:59:55.914Z,2.20
2023-05-10T20:03:20.008Z,2.03
2023-05-10T20:07:00.216Z,2.05
2023-05-10T20:10:21.915Z,1.65
2023-05-10T20:13:51.165Z,1.85
2023-05-10T20:17:16.575Z,1.83
2023-05-10T20:21:02.238Z,1.73
2023-05-10T20:24:34.921Z,1.90
2023-05-10T20:27:53.698Z,1.70
2023-05-10T20:31:07.720Z,2.13
2023-05-10T20:34:23.407Z,1.77
2023-05-10T20:37:38.390Z,1.80
2023-05-10T20:41:01.626Z,1.83
2023-05-10T20:44:54.117Z,1.80
2023-05-10T20:51:47.369Z,1.70
2023-05-10T20:58:27.697Z,1.52
2023-05-10T21:02:06.309Z,1.75
2023-05-10T21:05:27.002Z,2.28
2023-05-10T21:08:46.306Z,1.60
2023-05-10T21:12:50.845Z,1.58
2023-05-10T21:16:19.759Z,1.80
2023-05-10T21:20:15.422Z,1.70
2023-05-10T21:23:38.565Z,1.80
2023-05-10T21:27:15.295Z,1.60
2023-05-10T21:40:10.189Z,2.10
2023-05-10T22:11:06.895Z,2.07
2023-05-10T22:14:59.508Z,2.00
2023-05-10T22:18:16.296Z,1.77
2023-05-10T22:21:34.775Z,2.08
2023-05-10T22:24:47.089Z,1.75
2023-05-10T22:31:17.330Z,1.45
2023-05-10T22:34:24.034Z,1.98
2023-05-10T22:37:30.673Z,1.80
2023-05-10T22:40:43.079Z,2.55
2023-05-10T22:43:54.860Z,1.93
2023-05-10T22:47:14.603Z,1.90
2023-05-10T22:50:40.071Z,1.95
2023-05-10T22:54:19.698Z,1.83
2023-05-10T22:57:29.938Z,1.85
2023-05-10T23:01:04.881Z,2.20
2023-05-10T23:04:25.055Z,1.77
2023-05-10T23:07:59.202Z,1.70
2023-05-10T23:11:26.760Z,2.03
2023-05-10T23:14:59.478Z,1.77
2023-05-10T23:18:44.011Z,2.00
2023-05-10T23:22:19.716Z,1.70
2023-05-10T23:25:50.651Z,2.20
2023-05-10T23:29:17.238Z,1.90
2023-05-10T23:32:42.444Z,1.88
2023-05-10T23:36:28.805Z,2.13
2023-05-10T23:39:46.712Z,1.90
2023-05-10T23:43:05.526Z,2.10
2023-05-10T23:46:25.635Z,2.20
2023-05-10T23:49:51.976Z,2.00
2023-05-10T23:53:02.040Z,1.90
2023-05-10T23:56:11.536Z,1.80
2023-05-10T23:59:15.116Z,2.10
